Aérodrome :
LOGIN :

S'inscrire | Disclaimer

   EN    FR    IT 

 










Légende :    VFR   VFR Marginal   IFR   IFR Intensif   IFR Très Intensif
Visi : 
Plafond : 
>= 8 km
>= 3000ft
5 à 8 km
1000 à 3000 ft
1500m à 5 km
500 à 1000 ft
800 à 1500m
200 à 500 ft
< 800m
< 200 ft
Symboles :   Orages  Brouillard  Fortes neiges  Fortes précipitations  Vent > 20 kt
SIGMETs :   Divers  Orages  Givrage  Turbulence  Onde Orograph.  Cendres Volcan.







- Altitude de l'aérodrome : 33 ft
- Code IATA : MHZ


EGUN - RAF Mildenhall

DERNIER METAR :
  • 210956Z AUTO 20005KT 5000 BR FEW003 00/00 A2995 RMK AO2 SLP146 T00020002 $

METARs EXPIRÉS :
  • 210946Z AUTO 19006KT 5000 BR FEW003 00/00 A2995 RMK AO2 SLP146 $
  • 210936Z AUTO 19007KT 4400 BR SCT003 00/00 A2996 RMK AO2 SLP149 $
  • 210921Z AUTO 19006KT 3600 BR BKN003 00/00 A2997 RMK AO2 BKN V OVC SLP153 $
  • 210911Z AUTO 20007KT 3000 BR OVC002 00/00 A2997 RMK AO2 SLP153 $
  • 210856Z AUTO 20006KT 2400 BR OVC002 00/00 A2997 RMK AO2 SLP153 T10011001 52009 $
  • 210851Z AUTO 20003KT 2400 BR OVC002 00/00 A2997 RMK AO2 SLP153 $
  • 210841Z AUTO 20004KT 2000 BR OVC002 00/00 A2997 RMK AO2 SLP153 $
  • 210831Z AUTO 21005KT 1800 BR VV002 00/00 A2997 RMK AO2 SLP153 $
  • 210823Z AUTO 21004KT 1600 R29/P1500 BR OVC002 00/00 A2996 RMK AO2 SLP149 $
  • 210803Z AUTO 21004KT 1800 BR VV002 00/00 A2997 RMK AO2 SLP153 $
  • 210752Z AUTO 21003KT 1600 R29/1100V1400 BR OVC002 00/00 A2996 RMK AO2 VIS 1600V2400 SLP149 $
  • 210728Z AUTO 21004KT 2200 R29/1100 BR OVC002 00/00 A2996 RMK AO2 SLP149 $
  • 210723Z 00000KT 2000 R29/1100 BR OVC001 00/00 A2996 RMK AO2A SLP149 $

TAF AMD TAF EGUN
Valide du 21 à 10h jusqu'au 22 à 10h UTC


211001Z 2110/2210 VRB06KT 5000 BR SCT003 QNH2992INS
TEMPO 2110/2111 3200 BR BKN002
BECMG 2110/2111 18009KT 9000 BR BKN020 OVC050 QNH2988INS
BECMG 2114/2115 16012G18KT 5000 -RA BKN015 OVC020 QNH2974INS
BECMG 2119/2120 19009KT 5000 -RA OVC015 610609 QNH2970INS
BECMG 2122/2123 26010G15KT 9999 NSW SCT008 BKN015 610609 QNH2970INS
BECMG 2200/2201 28012KT 9999 SCT015 BKN030 610609 QNH2972INS TX09/2112Z TN00/2110Z
Pas de NOTAMs connus pour ce terrain.
1 SIGMET publié pour la FIR London (EGTT) :
 
Givrage fort
EGTT SIGMET 03 VALID 210715/211115 EGRR
EGTT LONDON FIR SEV ICE FCST WI N5220 W00530 - N5500 W00530 - N5500 W00303 - N5304 W00042 - N5004 W00223 - N5204 W00600 - N5220 W00530 FL020/140 MOV ESE 15KT NC=



MET'MAP, la Météo Aéronautique d'un coup d'oeil ! - Copyright ORBIFLY Décembre 2007 - Disclaimer

ORBIFLY MET'MAP TEAM :

Programmation & Développement : Alexandra Zaïnal
Conception & Développement : Baudouin d'Aumeries
Co-Programmation & Développement : Marc-Olivier Méhu
Soutien technique & logistique : Manuel Goepfert

Contact : metmap@orbifly.com




SOURCES & CREDITS :

   NOAA